TimeEDT,TemperatureF,Dew PointF,Humidity,Sea Level PressureIn,VisibilityMPH,Wind Direction,Wind SpeedMPH,Gust SpeedMPH,PrecipitationIn,Events,Conditions,WindDirDegrees,DateUTC
12:11 AM,46.4,46.4,100,30.10,6.0,NNW,11.5,-,0.00,Rain,Light Rain,340,2012-10-27 04:11:00
12:34 AM,46.4,46.4,100,30.09,5.0,North,11.5,-,0.01,Rain,Light Rain,360,2012-10-27 04:34:00
1:28 AM,46.4,46.4,100,30.08,7.0,North,12.7,-,0.01,Rain,Light Rain,360,2012-10-27 05:28:00
1:53 AM,46.9,46.0,97,30.08,10.0,North,12.7,20.7,0.01,Rain,Light Rain,350,2012-10-27 05:53:00
2:53 AM,46.9,45.0,93,30.06,5.0,North,13.8,-,0.02,Rain,Rain,360,2012-10-27 06:53:00
3:53 AM,46.9,45.0,93,30.06,8.0,North,10.4,-,0.02,Rain,Light Rain,360,2012-10-27 07:53:00
4:05 AM,46.4,44.6,93,30.05,5.0,North,10.4,-,0.00,Rain,Light Rain,350,2012-10-27 08:05:00
4:24 AM,46.4,44.6,93,30.03,3.0,North,13.8,-,0.01,Rain,Light Rain,360,2012-10-27 08:24:00
4:36 AM,46.4,44.6,93,30.03,4.0,North,12.7,-,0.02,Rain,Light Rain,10,2012-10-27 08:36:00
4:53 AM,46.0,45.0,96,30.04,7.0,North,11.5,-,0.03,Rain,Light Rain,360,2012-10-27 08:53:00
5:09 AM,46.4,44.6,93,30.03,8.0,North,11.5,-,0.00,Rain,Light Rain,360,2012-10-27 09:09:00
5:16 AM,46.4,44.6,93,30.03,9.0,North,13.8,-,0.00,Rain,Light Rain,360,2012-10-27 09:16:00
5:53 AM,46.9,46.0,97,30.04,6.0,North,10.4,-,0.01,Rain,Rain,360,2012-10-27 09:53:00
6:53 AM,46.0,45.0,96,30.06,10.0,NNW,10.4,-,0.01,Rain,Light Rain,340,2012-10-27 10:53:00
7:09 AM,44.6,44.6,100,30.05,10.0,North,15.0,24.2,0.00,Rain,Light Rain,350,2012-10-27 11:09:00
7:53 AM,44.1,43.0,96,30.07,7.0,North,15.0,21.9,0.00,Rain,Light Rain,350,2012-10-27 11:53:00
8:53 AM,44.1,43.0,96,30.09,4.0,North,16.1,25.3,0.00,,Overcast,360,2012-10-27 12:53:00
9:11 AM,44.6,42.8,93,30.08,7.0,North,15.0,20.7,N/A,,Overcast,360,2012-10-27 13:11:00
9:53 AM,44.1,43.0,96,30.11,3.0,North,16.1,-,0.00,Rain,Light Rain,350,2012-10-27 13:53:00
10:04 AM,44.6,42.8,93,30.10,3.0,North,12.7,-,0.00,,Overcast,360,2012-10-27 14:04:00
11:50 AM,46.4,42.8,87,30.10,10.0,North,16.1,23.0,N/A,,Overcast,10,2012-10-27 15:50:00
11:53 AM,46.0,42.1,86,30.12,10.0,North,15.0,23.0,N/A,,Overcast,10,2012-10-27 15:53:00
12:19 PM,46.4,42.8,87,30.10,10.0,North,17.3,24.2,N/A,,Overcast,10,2012-10-27 16:19:00
12:53 PM,48.0,43.0,83,30.10,10.0,North,13.8,23.0,N/A,,Overcast,10,2012-10-27 16:53:00
1:00 PM,48.2,42.8,82,30.09,10.0,North,17.3,23.0,N/A,,Overcast,360,2012-10-27 17:00:00
1:53 PM,48.0,43.0,83,30.09,10.0,NNW,16.1,21.9,N/A,,Overcast,340,2012-10-27 17:53:00
2:53 PM,48.9,43.0,80,30.06,10.0,North,15.0,-,N/A,,Overcast,360,2012-10-27 18:53:00
3:53 PM,48.9,43.0,80,30.07,10.0,North,13.8,-,N/A,,Overcast,360,2012-10-27 19:53:00
4:53 PM,48.9,42.1,77,30.07,10.0,North,12.7,21.9,N/A,,Overcast,10,2012-10-27 20:53:00
5:53 PM,48.9,42.1,77,30.08,10.0,North,9.2,-,N/A,,Overcast,350,2012-10-27 21:53:00
6:53 PM,48.0,42.1,80,30.09,10.0,North,15.0,-,N/A,,Overcast,360,2012-10-27 22:53:00
7:53 PM,48.0,41.0,77,30.12,10.0,North,11.5,-,N/A,,Overcast,350,2012-10-27 23:53:00
8:53 PM,48.0,41.0,77,30.11,10.0,North,15.0,20.7,N/A,,Overcast,360,2012-10-28 00:53:00
9:53 PM,46.9,41.0,80,30.11,10.0,North,10.4,-,N/A,,Overcast,360,2012-10-28 01:53:00
10:53 PM,46.9,39.9,77,30.11,10.0,North,17.3,20.7,N/A,,Overcast,10,2012-10-28 02:53:00